createdAt,value
2017-06-11T00:00:44.423Z,45.80
2017-06-11T00:03:11.965Z,46.00
2017-06-11T00:05:39.540Z,45.70
2017-06-11T00:08:07.072Z,46.00
2017-06-11T00:10:34.602Z,45.90
2017-06-11T00:13:02.139Z,45.40
2017-06-11T00:15:29.692Z,45.30
2017-06-11T00:17:57.228Z,45.40
2017-06-11T00:20:24.774Z,45.70
2017-06-11T00:22:52.307Z,45.60
2017-06-11T00:25:20.616Z,45.30
2017-06-11T00:27:48.135Z,45.30
2017-06-11T00:30:15.694Z,45.40
2017-06-11T00:32:43.230Z,45.50
2017-06-11T00:35:10.799Z,45.70
2017-06-11T00:37:38.328Z,45.80
2017-06-11T00:40:05.863Z,45.60
2017-06-11T00:42:33.414Z,45.50
2017-06-11T00:45:01.005Z,45.70
2017-06-11T00:47:28.549Z,45.70
2017-06-11T00:49:56.083Z,45.90
2017-06-11T00:52:23.643Z,46.30
2017-06-11T00:54:51.956Z,46.10
2017-06-11T00:57:19.532Z,46.10
2017-06-11T00:59:47.073Z,46.10
2017-06-11T01:02:14.621Z,46.10
2017-06-11T01:04:42.187Z,46.30
2017-06-11T01:07:09.731Z,47.30
2017-06-11T01:09:38.060Z,46.40
2017-06-11T01:12:05.578Z,46.30
2017-06-11T01:14:33.111Z,46.30
2017-06-11T01:17:01.412Z,46.10
2017-06-11T01:19:28.976Z,46.10
2017-06-11T01:21:56.480Z,45.80
2017-06-11T01:24:24.028Z,45.90
2017-06-11T01:26:51.572Z,46.30
2017-06-11T01:29:19.120Z,46.30
2017-06-11T01:31:46.662Z,46.10
2017-06-11T01:34:14.965Z,46.20
2017-06-11T01:36:42.546Z,46.20
2017-06-11T01:39:10.097Z,45.90
2017-06-11T01:41:37.648Z,46.30
2017-06-11T01:44:05.178Z,46.00
2017-06-11T01:46:35.514Z,46.10
2017-06-11T01:49:04.746Z,46.20
2017-06-11T01:51:32.289Z,46.10
2017-06-11T01:53:59.812Z,46.60
2017-06-11T01:56:27.365Z,46.20
2017-06-11T01:58:54.870Z,46.20
2017-06-11T02:01:22.394Z,46.60
2017-06-11T02:03:49.907Z,47.00
2017-06-11T02:06:17.451Z,46.80
2017-06-11T02:08:45.006Z,46.80
2017-06-11T02:11:12.562Z,46.80
2017-06-11T02:13:40.094Z,46.90
2017-06-11T02:16:08.400Z,46.80
2017-06-11T02:18:35.951Z,46.80
2017-06-11T02:21:03.510Z,46.90
2017-06-11T02:23:31.059Z,46.70
2017-06-11T02:25:59.382Z,47.20
2017-06-11T02:28:26.896Z,47.20
2017-06-11T02:30:55.212Z,47.80
2017-06-11T02:33:22.714Z,47.10
2017-06-11T02:35:50.240Z,47.00
2017-06-11T02:38:17.757Z,47.00
2017-06-11T02:40:46.058Z,47.30
2017-06-11T02:43:13.575Z,47.30
2017-06-11T02:45:41.126Z,47.60
2017-06-11T02:48:08.626Z,47.50
2017-06-11T02:50:36.200Z,47.70
2017-06-11T02:53:03.714Z,47.90
2017-06-11T02:55:31.267Z,47.60
2017-06-11T02:57:58.804Z,47.10
2017-06-11T03:00:26.359Z,47.10
2017-06-11T03:02:53.931Z,47.10
2017-06-11T03:05:21.461Z,47.10
2017-06-11T03:07:49.003Z,47.20
2017-06-11T03:10:16.547Z,47.20
2017-06-11T03:12:44.056Z,46.80
2017-06-11T03:15:11.586Z,46.70
2017-06-11T03:17:39.127Z,46.60
2017-06-11T03:20:07.405Z,46.80
2017-06-11T03:22:35.699Z,46.80
2017-06-11T03:25:03.291Z,46.70
2017-06-11T03:27:30.810Z,46.70
2017-06-11T03:29:58.349Z,46.30
2017-06-11T03:32:26.638Z,46.30
2017-06-11T03:34:54.146Z,46.20
2017-06-11T03:37:21.702Z,46.70
2017-06-11T03:39:49.238Z,46.80
2017-06-11T03:42:16.797Z,46.70
2017-06-11T03:44:44.323Z,46.70
2017-06-11T03:47:12.630Z,46.70
2017-06-11T03:49:40.156Z,46.20
2017-06-11T03:52:08.454Z,46.50
2017-06-11T03:54:36.755Z,46.60
2017-06-11T03:57:04.309Z,46.60
2017-06-11T03:59:31.830Z,46.60
2017-06-11T04:02:00.166Z,46.90
2017-06-11T04:04:27.678Z,46.90
2017-06-11T04:06:55.986Z,47.00
2017-06-11T04:09:23.519Z,46.90
2017-06-11T04:11:51.079Z,46.10
2017-06-11T04:14:18.619Z,46.10
2017-06-11T04:16:46.146Z,45.80
2017-06-11T04:19:13.665Z,45.80
2017-06-11T04:21:41.225Z,46.40
2017-06-11T04:24:08.777Z,46.50
2017-06-11T04:26:36.324Z,46.60
2017-06-11T04:29:03.905Z,46.50
2017-06-11T04:31:31.444Z,46.40
2017-06-11T04:33:58.978Z,46.50
2017-06-11T04:36:26.525Z,46.10
2017-06-11T04:38:54.087Z,45.70
2017-06-11T04:41:21.607Z,45.60
2017-06-11T04:43:49.157Z,45.20
2017-06-11T04:46:16.689Z,45.40
2017-06-11T04:48:44.210Z,45.30
2017-06-11T04:51:11.795Z,45.00
2017-06-11T04:53:39.372Z,44.60
2017-06-11T04:56:06.930Z,44.60
2017-06-11T04:58:34.486Z,44.80
2017-06-11T05:01:02.004Z,45.00
2017-06-11T05:03:29.533Z,44.70
2017-06-11T05:05:57.842Z,44.80
2017-06-11T05:08:25.408Z,44.80
2017-06-11T05:10:52.987Z,44.60
2017-06-11T05:13:20.535Z,44.30
2017-06-11T05:15:48.090Z,44.40
2017-06-11T05:18:15.636Z,44.20
2017-06-11T05:20:43.209Z,44.00
2017-06-11T05:23:10.779Z,43.70
2017-06-11T05:25:39.218Z,43.30
2017-06-11T05:28:06.820Z,42.80
2017-06-11T05:30:34.388Z,42.30
2017-06-11T05:33:01.942Z,43.30
2017-06-11T05:35:29.479Z,42.60
2017-06-11T05:37:57.015Z,42.90
2017-06-11T05:40:24.579Z,42.80
2017-06-11T05:42:52.123Z,42.50
2017-06-11T05:45:20.406Z,41.90
2017-06-11T05:47:48.759Z,41.90
2017-06-11T05:50:16.283Z,41.90
2017-06-11T05:52:43.853Z,41.50
2017-06-11T05:55:11.434Z,41.70
2017-06-11T05:57:39.003Z,41.70
2017-06-11T06:00:06.556Z,41.20
2017-06-11T06:02:34.116Z,41.80
2017-06-11T06:05:01.639Z,41.70
2017-06-11T06:07:29.174Z,41.50
2017-06-11T06:09:57.455Z,41.90
2017-06-11T06:12:25.024Z,41.80
2017-06-11T06:14:52.561Z,42.20
2017-06-11T06:17:20.863Z,43.20
2017-06-11T06:19:48.380Z,42.60
2017-06-11T06:22:15.947Z,41.90
2017-06-11T06:24:44.259Z,41.90
2017-06-11T06:27:11.883Z,41.40
2017-06-11T06:29:39.418Z,41.20
2017-06-11T06:32:06.953Z,40.80
2017-06-11T06:34:34.506Z,40.90
2017-06-11T06:37:02.128Z,40.80
2017-06-11T06:39:29.678Z,41.20
2017-06-11T06:41:57.968Z,41.00
2017-06-11T06:44:25.528Z,40.90
2017-06-11T06:46:53.058Z,41.80
2017-06-11T06:49:20.646Z,41.80
2017-06-11T06:51:48.205Z,42.20
2017-06-11T06:54:16.538Z,42.20
2017-06-11T06:56:44.070Z,42.10
2017-06-11T06:59:11.648Z,41.80
2017-06-11T07:01:39.225Z,41.70
2017-06-11T07:04:06.834Z,41.80
2017-06-11T07:06:35.122Z,40.90
2017-06-11T07:09:02.656Z,40.80
2017-06-11T07:11:30.242Z,40.60
2017-06-11T07:13:58.603Z,39.30
2017-06-11T07:16:26.150Z,39.20
2017-06-11T07:18:53.696Z,38.70
2017-06-11T07:21:21.250Z,37.90
2017-06-11T07:23:48.801Z,37.50
2017-06-11T07:26:16.368Z,37.60
2017-06-11T07:28:43.934Z,38.30
2017-06-11T07:31:11.454Z,37.90
2017-06-11T07:33:39.010Z,36.80
2017-06-11T07:36:06.558Z,36.50
2017-06-11T07:38:34.110Z,37.10
2017-06-11T07:41:02.395Z,35.50
2017-06-11T07:46:03.815Z,35.40
2017-06-11T07:48:31.339Z,35.80
2017-06-11T07:50:58.913Z,36.80
2017-06-11T07:53:26.457Z,36.50
2017-06-11T07:55:53.996Z,34.10
2017-06-11T07:58:22.311Z,31.70
2017-06-11T08:00:49.838Z,31.70
2017-06-11T08:03:18.136Z,32.90
2017-06-11T08:05:45.687Z,32.80
2017-06-11T08:08:13.314Z,33.20
2017-06-11T08:10:40.843Z,33.50
2017-06-11T08:13:08.495Z,34.00
2017-06-11T08:15:35.998Z,32.50
2017-06-11T08:18:03.527Z,31.70
2017-06-11T08:20:31.064Z,31.70
2017-06-11T08:22:58.646Z,30.80
2017-06-11T08:25:26.190Z,30.00
2017-06-11T08:27:53.765Z,28.40
2017-06-11T08:30:21.302Z,27.80
2017-06-11T08:32:48.865Z,26.70
2017-06-11T08:35:16.425Z,25.70
2017-06-11T08:37:43.925Z,24.60
2017-06-11T08:40:11.467Z,24.30
2017-06-11T08:42:38.975Z,23.80
2017-06-11T08:45:07.302Z,23.70
2017-06-11T08:47:34.815Z,23.60
2017-06-11T08:50:03.135Z,22.30
2017-06-11T08:52:30.673Z,22.30
2017-06-11T08:54:58.227Z,23.10
2017-06-11T08:57:25.777Z,22.70
2017-06-11T08:59:53.338Z,22.60
2017-06-11T09:02:20.869Z,23.40
2017-06-11T09:04:48.536Z,22.70
2017-06-11T09:07:16.064Z,23.90
2017-06-11T09:09:43.648Z,23.50
2017-06-11T09:12:11.239Z,25.40
2017-06-11T09:14:39.554Z,26.90
2017-06-11T09:17:07.066Z,26.90
2017-06-11T09:19:35.369Z,27.10
2017-06-11T09:22:02.955Z,27.00
2017-06-11T09:24:30.471Z,27.90
2017-06-11T09:26:58.767Z,27.10
2017-06-11T09:29:26.310Z,27.10
2017-06-11T09:31:54.584Z,28.20
2017-06-11T09:34:22.905Z,28.60
2017-06-11T09:36:50.438Z,28.60
2017-06-11T09:39:17.975Z,28.30
2017-06-11T09:41:46.251Z,28.80
2017-06-11T09:44:14.631Z,27.90
2017-06-11T09:46:42.159Z,27.80
2017-06-11T09:49:09.685Z,26.90
2017-06-11T09:51:37.215Z,26.80
2017-06-11T09:54:05.501Z,26.70
2017-06-11T09:56:33.018Z,26.70
2017-06-11T09:59:00.519Z,26.40
2017-06-11T10:01:28.078Z,27.20
2017-06-11T10:03:55.598Z,26.90
2017-06-11T10:06:23.202Z,26.20
2017-06-11T10:08:50.723Z,26.50
2017-06-11T10:11:18.267Z,27.00
2017-06-11T10:13:45.823Z,27.10
2017-06-11T10:16:13.374Z,27.30
2017-06-11T10:18:40.906Z,28.20
2017-06-11T10:21:08.454Z,26.80
2017-06-11T10:23:36.021Z,26.90
2017-06-11T10:26:03.550Z,26.30
2017-06-11T10:28:31.865Z,26.50
2017-06-11T10:30:59.397Z,26.50
2017-06-11T10:33:26.943Z,26.50
2017-06-11T10:35:54.504Z,25.90
2017-06-11T10:38:22.103Z,25.70
2017-06-11T10:40:49.639Z,25.40
2017-06-11T10:43:17.944Z,24.90
2017-06-11T10:45:45.478Z,24.80
2017-06-11T10:48:13.754Z,25.30
2017-06-11T10:50:42.061Z,24.20
2017-06-11T10:53:09.575Z,24.10
2017-06-11T10:55:37.915Z,23.80
2017-06-11T10:58:05.436Z,23.70
2017-06-11T11:00:32.966Z,24.80
2017-06-11T11:03:00.559Z,24.20
2017-06-11T11:05:28.082Z,24.20
2017-06-11T11:07:55.606Z,24.00
2017-06-11T11:10:23.115Z,23.80
2017-06-11T11:12:50.639Z,24.10
2017-06-11T11:15:18.195Z,23.60
2017-06-11T11:17:45.722Z,23.50
2017-06-11T11:20:13.253Z,24.00
2017-06-11T11:22:40.777Z,24.00
2017-06-11T11:25:08.321Z,23.90
2017-06-11T11:27:35.831Z,24.10
2017-06-11T11:30:03.382Z,24.60
2017-06-11T11:32:31.643Z,24.50
2017-06-11T11:34:59.320Z,26.00
2017-06-11T11:37:26.866Z,24.70
2017-06-11T11:39:54.558Z,24.30
2017-06-11T11:42:22.365Z,23.90
2017-06-11T11:44:49.886Z,24.10
2017-06-11T11:47:20.869Z,23.60
2017-06-11T11:49:48.419Z,23.60
2017-06-11T11:52:15.949Z,24.70
2017-06-11T11:54:43.474Z,25.50
2017-06-11T11:57:11.082Z,25.10
2017-06-11T11:59:38.621Z,25.20
2017-06-11T12:02:06.150Z,25.70
2017-06-11T12:04:33.654Z,25.40
2017-06-11T12:07:01.233Z,25.90
2017-06-11T12:09:28.769Z,25.10
2017-06-11T12:11:57.090Z,24.90
2017-06-11T12:14:24.663Z,24.80
2017-06-11T12:16:52.220Z,24.00
2017-06-11T12:19:19.809Z,24.20
2017-06-11T12:21:47.375Z,24.20
2017-06-11T12:24:15.157Z,24.90
2017-06-11T12:26:43.347Z,25.40
2017-06-11T12:29:10.893Z,24.90
2017-06-11T12:31:38.458Z,25.50
2017-06-11T12:34:05.982Z,25.60
2017-06-11T12:36:33.514Z,25.80
2017-06-11T12:39:01.026Z,26.70
2017-06-11T12:41:29.342Z,26.90
2017-06-11T12:43:56.842Z,26.90
2017-06-11T12:46:24.425Z,25.90
2017-06-11T12:48:52.033Z,25.40
2017-06-11T12:51:19.578Z,25.40
2017-06-11T12:53:47.086Z,25.40
2017-06-11T12:56:14.613Z,25.40
2017-06-11T12:58:42.146Z,25.30
2017-06-11T13:01:09.739Z,25.70
2017-06-11T13:03:37.276Z,25.50
2017-06-11T13:06:04.850Z,25.90
2017-06-11T13:08:32.371Z,25.90
2017-06-11T13:10:59.919Z,26.10
2017-06-11T13:13:28.371Z,26.90
2017-06-11T13:15:55.903Z,26.90
2017-06-11T13:18:23.460Z,27.40
2017-06-11T13:20:50.989Z,27.30
2017-06-11T13:23:18.548Z,27.10
2017-06-11T13:25:46.063Z,26.80
2017-06-11T13:28:13.629Z,27.00
2017-06-11T13:30:41.138Z,26.60
2017-06-11T13:33:08.689Z,26.70
2017-06-11T13:35:36.249Z,27.10
2017-06-11T13:38:03.790Z,27.80
2017-06-11T13:40:32.074Z,27.50
2017-06-11T13:43:00.375Z,27.50
2017-06-11T13:45:27.938Z,27.50
2017-06-11T13:47:55.478Z,26.60
2017-06-11T13:50:23.037Z,26.80
2017-06-11T13:52:51.346Z,27.90
2017-06-11T13:55:18.973Z,27.80
2017-06-11T13:57:47.295Z,27.40
2017-06-11T14:00:14.836Z,27.30
2017-06-11T14:02:42.394Z,27.00
2017-06-11T14:05:09.907Z,26.50
2017-06-11T14:07:37.466Z,25.30
2017-06-11T14:10:04.962Z,24.40
2017-06-11T14:12:32.487Z,24.10
2017-06-11T14:15:00.021Z,23.60
2017-06-11T14:17:27.551Z,24.60
2017-06-11T14:19:55.072Z,25.10
2017-06-11T14:22:22.639Z,24.70
2017-06-11T14:24:50.917Z,24.90
2017-06-11T14:27:19.236Z,26.40
2017-06-11T14:29:46.757Z,26.30
2017-06-11T14:32:15.061Z,25.60
2017-06-11T14:34:42.588Z,25.60
2017-06-11T14:37:10.109Z,25.80
2017-06-11T14:39:37.621Z,26.60
2017-06-11T14:42:05.982Z,25.90
2017-06-11T14:44:33.493Z,25.90
2017-06-11T14:47:01.050Z,26.30
2017-06-11T14:49:28.590Z,26.50
2017-06-11T14:51:56.135Z,27.30
2017-06-11T14:54:24.573Z,27.20
2017-06-11T14:56:52.116Z,27.10
2017-06-11T14:59:19.690Z,27.70
2017-06-11T15:01:47.235Z,28.30
2017-06-11T15:04:14.839Z,27.60
2017-06-11T15:06:42.386Z,28.20
2017-06-11T15:09:09.926Z,27.90
2017-06-11T15:11:37.449Z,27.70
2017-06-11T15:14:05.014Z,27.90
2017-06-11T15:16:32.533Z,27.90
2017-06-11T15:19:00.095Z,28.20
2017-06-11T15:21:27.651Z,28.20
2017-06-11T15:23:55.205Z,28.80
2017-06-11T15:26:22.717Z,28.70
2017-06-11T15:28:50.263Z,28.90
2017-06-11T15:31:17.831Z,28.70
2017-06-11T15:33:45.361Z,29.90
2017-06-11T15:36:12.854Z,29.40
2017-06-11T15:38:40.414Z,30.20
2017-06-11T15:41:07.921Z,29.90
2017-06-11T15:43:35.498Z,29.90
2017-06-11T15:46:03.843Z,30.70
2017-06-11T15:48:31.357Z,30.60
2017-06-11T15:50:59.675Z,30.30
2017-06-11T15:53:27.255Z,30.30
2017-06-11T15:55:54.758Z,29.70
2017-06-11T15:58:22.440Z,29.90
2017-06-11T16:00:49.974Z,29.50
2017-06-11T16:03:18.290Z,29.40
2017-06-11T16:05:45.821Z,29.40
2017-06-11T16:08:13.342Z,29.90
2017-06-11T16:10:40.914Z,29.30
2017-06-11T16:13:08.491Z,29.40
2017-06-11T16:15:36.770Z,29.90
2017-06-11T16:18:05.070Z,29.40
2017-06-11T16:20:32.579Z,29.40
2017-06-11T16:23:00.136Z,29.80
2017-06-11T16:25:27.644Z,29.30
2017-06-11T16:27:55.212Z,29.10
2017-06-11T16:30:22.754Z,29.60
2017-06-11T16:32:50.287Z,29.40
2017-06-11T16:35:18.617Z,30.00
2017-06-11T16:37:46.126Z,30.00
2017-06-11T16:40:14.447Z,29.30
2017-06-11T16:42:42.010Z,29.50
2017-06-11T16:45:09.538Z,29.90
2017-06-11T16:47:37.844Z,30.20
2017-06-11T16:50:05.424Z,30.20
2017-06-11T16:52:32.956Z,30.10
2017-06-11T16:55:00.598Z,30.00
2017-06-11T16:57:28.878Z,29.50
2017-06-11T16:59:57.218Z,30.60
2017-06-11T17:02:24.763Z,30.60
2017-06-11T17:04:52.318Z,30.60
2017-06-11T17:07:19.975Z,31.90
2017-06-11T17:09:47.514Z,33.00
2017-06-11T17:12:15.066Z,32.00
2017-06-11T17:14:42.587Z,32.40
2017-06-11T17:17:10.131Z,32.80
2017-06-11T17:19:37.662Z,33.40
2017-06-11T17:22:05.194Z,35.10
2017-06-11T17:24:32.838Z,35.40
2017-06-11T17:27:00.373Z,36.40
2017-06-11T17:29:27.892Z,36.50
2017-06-11T17:31:55.463Z,36.70
2017-06-11T17:34:23.051Z,36.70
2017-06-11T17:36:50.570Z,37.10
2017-06-11T17:39:18.119Z,37.40
2017-06-11T17:41:45.639Z,38.00
2017-06-11T17:44:13.513Z,38.20
2017-06-11T17:46:41.024Z,37.70
2017-06-11T17:49:08.579Z,38.50
2017-06-11T17:51:36.081Z,38.40
2017-06-11T17:54:03.607Z,37.70
2017-06-11T17:56:31.117Z,38.40
2017-06-11T17:58:58.661Z,38.30
2017-06-11T18:01:26.184Z,38.60
2017-06-11T18:03:53.721Z,38.80
2017-06-11T18:06:21.993Z,39.30
2017-06-11T18:08:50.288Z,39.70
2017-06-11T18:11:17.872Z,39.70
2017-06-11T18:13:46.245Z,38.90
2017-06-11T18:16:13.775Z,39.50
2017-06-11T18:18:41.312Z,39.40
2017-06-11T18:21:09.623Z,39.20
2017-06-11T18:23:37.154Z,39.20
2017-06-11T18:26:05.581Z,40.10
2017-06-11T18:28:33.145Z,40.10
2017-06-11T18:31:01.479Z,39.80
2017-06-11T18:33:29.737Z,39.80
2017-06-11T18:35:58.117Z,39.90
2017-06-11T18:38:25.668Z,39.90
2017-06-11T18:40:53.225Z,40.00
2017-06-11T18:43:20.825Z,42.00
2017-06-11T18:45:48.358Z,40.90
2017-06-11T18:48:15.886Z,41.20
2017-06-11T18:50:43.419Z,41.60
2017-06-11T18:53:10.947Z,42.30
2017-06-11T18:55:39.267Z,42.10
2017-06-11T18:58:06.814Z,42.10
2017-06-11T19:00:34.338Z,42.50
2017-06-11T19:03:01.858Z,43.00
2017-06-11T19:05:29.381Z,42.00
2017-06-11T19:07:56.886Z,42.80
2017-06-11T19:10:24.438Z,42.60
2017-06-11T19:12:51.983Z,41.80
2017-06-11T19:15:19.509Z,42.40
2017-06-11T19:17:47.034Z,42.80
2017-06-11T19:20:14.560Z,43.10
2017-06-11T19:22:42.133Z,43.40
2017-06-11T19:25:09.682Z,43.30
2017-06-11T19:27:37.283Z,43.10
2017-06-11T19:30:04.810Z,44.20
2017-06-11T19:32:32.314Z,43.70
2017-06-11T19:34:59.834Z,43.70
2017-06-11T19:37:27.367Z,44.30
2017-06-11T19:39:54.918Z,42.50
2017-06-11T19:42:22.443Z,43.00
2017-06-11T19:44:49.985Z,43.20
2017-06-11T19:47:17.506Z,45.40
2017-06-11T19:49:45.061Z,44.40
2017-06-11T19:52:12.602Z,43.30
2017-06-11T19:54:40.135Z,44.50
2017-06-11T19:57:07.722Z,44.70
2017-06-11T19:59:35.289Z,44.30
2017-06-11T20:02:03.600Z,46.40
2017-06-11T20:04:31.130Z,46.40
2017-06-11T20:06:58.689Z,47.50
2017-06-11T20:09:26.967Z,48.50
2017-06-11T20:11:54.514Z,48.40
2017-06-11T20:14:22.084Z,49.50
2017-06-11T20:16:49.627Z,48.60
2017-06-11T20:19:17.154Z,48.60
2017-06-11T20:21:44.718Z,46.90
2017-06-11T20:24:12.230Z,48.50
2017-06-11T20:26:39.778Z,47.50
2017-06-11T20:29:07.325Z,48.50
2017-06-11T20:31:34.914Z,47.90
2017-06-11T20:34:02.445Z,48.40
2017-06-11T20:36:30.765Z,51.10
2017-06-11T20:38:58.317Z,50.40
2017-06-11T20:41:25.860Z,49.00
2017-06-11T20:43:53.395Z,48.30
2017-06-11T20:46:20.926Z,48.90
2017-06-11T20:48:48.472Z,49.00
2017-06-11T20:51:16.029Z,48.40
2017-06-11T20:53:43.568Z,48.90
2017-06-11T20:56:11.175Z,49.30
2017-06-11T20:58:38.678Z,49.40
2017-06-11T21:01:07.003Z,49.70
2017-06-11T21:03:34.544Z,49.60
2017-06-11T21:06:02.075Z,49.40
2017-06-11T21:08:29.634Z,49.10
2017-06-11T21:10:57.170Z,48.70
2017-06-11T21:13:24.710Z,48.80
2017-06-11T21:15:52.253Z,48.40
2017-06-11T21:18:19.755Z,48.60
2017-06-11T21:20:47.337Z,48.60
2017-06-11T21:23:14.901Z,48.70
2017-06-11T21:25:42.470Z,48.00
2017-06-11T21:28:10.002Z,48.10
2017-06-11T21:30:38.313Z,49.80
2017-06-11T21:33:05.885Z,49.30
2017-06-11T21:35:33.386Z,48.90
2017-06-11T21:38:00.925Z,50.20
2017-06-11T21:40:28.501Z,50.20
2017-06-11T21:42:56.048Z,51.10
2017-06-11T21:45:23.566Z,50.90
2017-06-11T21:47:51.106Z,50.80
2017-06-11T21:50:18.655Z,50.10
2017-06-11T21:52:46.988Z,49.70
2017-06-11T21:55:14.492Z,49.70
2017-06-11T21:57:42.774Z,49.90
2017-06-11T22:00:11.059Z,50.10
2017-06-11T22:02:38.665Z,50.10
2017-06-11T22:05:06.182Z,50.10
2017-06-11T22:07:33.769Z,50.40
2017-06-11T22:10:01.301Z,51.40
2017-06-11T22:12:28.871Z,51.30
2017-06-11T22:14:56.445Z,51.50
2017-06-11T22:17:24.026Z,50.70
2017-06-11T22:19:51.586Z,50.20
2017-06-11T22:22:19.167Z,49.60
2017-06-11T22:24:46.727Z,50.10
2017-06-11T22:27:14.291Z,50.00
2017-06-11T22:29:41.823Z,50.50
2017-06-11T22:32:09.362Z,50.00
2017-06-11T22:34:36.878Z,50.20
2017-06-11T22:37:04.410Z,50.30
2017-06-11T22:39:31.940Z,50.60
2017-06-11T22:41:59.479Z,51.20
2017-06-11T22:44:26.990Z,50.80
2017-06-11T22:46:54.587Z,51.10
2017-06-11T22:49:22.931Z,51.00
2017-06-11T22:51:50.466Z,51.00
2017-06-11T22:54:18.031Z,49.50
2017-06-11T22:56:45.543Z,49.00
2017-06-11T22:59:13.849Z,48.30
2017-06-11T23:01:41.423Z,48.70
2017-06-11T23:04:08.975Z,47.90
2017-06-11T23:06:36.511Z,47.80
2017-06-11T23:09:04.061Z,48.00
2017-06-11T23:11:31.591Z,47.20
2017-06-11T23:13:59.138Z,45.10
2017-06-11T23:16:26.657Z,43.20
2017-06-11T23:18:54.217Z,43.10
2017-06-11T23:21:21.730Z,42.70
2017-06-11T23:23:49.270Z,42.70
2017-06-11T23:26:16.778Z,41.50
2017-06-11T23:28:45.110Z,42.50
2017-06-11T23:31:12.620Z,41.60
2017-06-11T23:33:40.921Z,42.00
2017-06-11T23:36:08.463Z,41.80
2017-06-11T23:38:36.786Z,41.50
2017-06-11T23:41:04.328Z,41.50
2017-06-11T23:43:31.921Z,41.00
2017-06-11T23:45:59.456Z,40.60
2017-06-11T23:48:27.019Z,39.60
2017-06-11T23:50:54.543Z,40.10
2017-06-11T23:53:22.850Z,39.50
2017-06-11T23:55:50.383Z,39.40
2017-06-11T23:58:17.936Z,39.20
